createdAt,value
2018-12-04T00:01:45.235Z,96727.80
2018-12-04T00:04:12.843Z,96730.27
2018-12-04T00:06:40.548Z,96727.36
2018-12-04T00:09:08.167Z,96723.67
2018-12-04T00:11:35.875Z,96723.56
2018-12-04T00:14:03.505Z,96732.08
2018-12-04T00:16:31.195Z,96735.41
2018-12-04T00:18:58.808Z,96731.86
2018-12-04T00:21:26.520Z,96728.27
2018-12-04T00:23:54.123Z,96726.48
2018-12-04T00:26:21.727Z,96741.14
2018-12-04T00:28:49.336Z,96735.09
2018-12-04T00:31:16.944Z,96731.97
2018-12-04T00:33:44.648Z,96742.67
2018-12-04T00:36:12.273Z,96739.44
2018-12-04T00:38:39.956Z,96741.44
2018-12-04T00:41:07.580Z,96743.00
2018-12-04T00:43:35.276Z,96745.78
2018-12-04T00:46:02.890Z,96756.52
2018-12-04T00:48:30.499Z,96749.02
2018-12-04T00:50:58.144Z,96752.17
2018-12-04T00:53:25.779Z,96750.50
2018-12-04T00:55:53.400Z,96753.84
2018-12-04T00:58:21.006Z,96756.41
2018-12-04T01:00:48.620Z,96759.67
2018-12-04T01:03:16.231Z,96762.54
2018-12-04T01:05:43.941Z,96768.13
2018-12-04T01:08:11.542Z,96769.57
2018-12-04T01:10:39.285Z,96773.16
2018-12-04T01:13:07.125Z,96786.03
2018-12-04T01:15:34.730Z,96784.47
2018-12-04T01:18:02.368Z,96785.85
2018-12-04T01:20:30.000Z,96785.56
2018-12-04T01:22:57.616Z,96793.94
2018-12-04T01:25:25.234Z,96794.41
2018-12-04T01:27:52.867Z,96776.56
2018-12-04T01:30:20.497Z,96800.25
2018-12-04T01:32:48.198Z,96799.78
2018-12-04T01:35:15.903Z,96798.66
2018-12-04T01:37:43.591Z,96802.13
2018-12-04T01:40:11.279Z,96814.67
2018-12-04T01:42:38.887Z,96821.83
2018-12-04T01:45:06.882Z,96828.86
2018-12-04T01:47:34.595Z,96828.42
2018-12-04T01:50:02.203Z,96832.89
2018-12-04T01:52:29.841Z,96810.75
2018-12-04T01:54:57.451Z,96827.84
2018-12-04T01:57:25.079Z,96825.48
2018-12-04T01:59:52.691Z,96824.14
2018-12-04T02:02:20.304Z,96810.55
2018-12-04T02:04:47.937Z,96814.36
2018-12-04T02:07:15.536Z,96818.09
2018-12-04T02:09:43.275Z,96815.66
2018-12-04T02:12:10.897Z,96822.11
2018-12-04T02:14:38.571Z,96837.02
2018-12-04T02:17:06.183Z,96833.54
2018-12-04T02:19:33.800Z,96827.73
2018-12-04T02:22:01.448Z,96827.95
2018-12-04T02:24:29.119Z,96838.36
2018-12-04T02:26:56.731Z,96832.98
2018-12-04T02:29:24.464Z,96845.61
2018-12-04T02:31:52.089Z,96846.19
2018-12-04T02:34:19.772Z,96847.75
2018-12-04T02:36:47.384Z,96845.39
2018-12-04T02:39:15.051Z,96834.12
2018-12-04T02:41:42.743Z,96851.23
2018-12-04T02:44:10.351Z,96844.56
2018-12-04T02:46:38.000Z,96847.00
2018-12-04T02:49:05.635Z,96848.77
2018-12-04T02:51:33.273Z,96850.33
2018-12-04T02:54:00.884Z,96839.48
2018-12-04T02:56:28.500Z,96843.25
2018-12-04T02:58:56.204Z,96856.34
2018-12-04T03:01:23.849Z,96853.11
2018-12-04T03:03:51.455Z,96852.00
2018-12-04T03:06:19.057Z,96839.61
2018-12-04T03:08:46.679Z,96864.77
2018-12-04T03:11:14.407Z,96863.30
2018-12-04T03:13:42.020Z,96874.91
2018-12-04T03:16:09.646Z,96870.92
2018-12-04T03:18:37.268Z,96880.74
2018-12-04T03:21:04.879Z,96877.59
2018-12-04T03:23:32.511Z,96882.20
2018-12-04T03:26:00.115Z,96878.88
2018-12-04T03:28:27.835Z,96884.67
2018-12-04T03:30:55.447Z,96887.35
2018-12-04T03:33:28.634Z,96888.37
2018-12-04T03:35:56.343Z,96889.23
2018-12-04T03:38:23.964Z,96894.16
2018-12-04T03:40:51.605Z,96894.92
2018-12-04T03:43:19.230Z,96895.67
2018-12-04T03:45:46.844Z,96903.41
2018-12-04T03:48:14.470Z,96907.65
2018-12-04T03:50:42.072Z,96902.06
2018-12-04T03:53:09.785Z,96908.27
2018-12-04T03:55:37.404Z,96914.03
2018-12-04T03:58:05.099Z,96912.95
2018-12-04T04:00:32.703Z,96914.68
2018-12-04T04:03:00.578Z,96909.41
2018-12-04T04:05:28.211Z,96913.59
2018-12-04T04:07:55.857Z,96913.91
2018-12-04T04:10:23.510Z,96917.36
2018-12-04T04:12:51.137Z,96916.45
2018-12-04T04:15:18.818Z,96922.51
2018-12-04T04:17:46.528Z,96929.31
2018-12-04T04:20:14.752Z,96931.58
2018-12-04T04:22:42.846Z,96937.96
2018-12-04T04:25:10.649Z,96936.94
2018-12-04T04:27:38.520Z,96935.92
2018-12-04T04:30:06.790Z,96942.09
2018-12-04T04:32:35.091Z,96938.98
2018-12-04T04:35:03.363Z,96941.83
2018-12-04T04:37:31.203Z,96939.83
2018-12-04T04:39:59.047Z,96951.38
2018-12-04T04:42:27.129Z,96948.70
2018-12-04T04:44:55.390Z,96946.33
2018-12-04T04:47:23.524Z,96949.72
2018-12-04T04:49:51.461Z,96954.86
2018-12-04T04:52:19.261Z,96953.27
2018-12-04T04:54:47.322Z,96961.24
2018-12-04T04:57:15.650Z,96962.16
2018-12-04T04:59:43.897Z,96969.42
2018-12-04T05:02:11.719Z,96966.13
2018-12-04T05:04:39.545Z,96970.95
2018-12-04T05:07:07.280Z,96982.66
2018-12-04T05:09:35.108Z,96974.28
2018-12-04T05:12:02.826Z,96967.58
2018-12-04T05:14:30.661Z,96977.61
2018-12-04T05:16:58.407Z,96986.45
2018-12-04T05:19:26.343Z,96993.16
2018-12-04T05:21:54.124Z,96997.73
2018-12-04T05:24:21.828Z,97002.62
2018-12-04T05:26:49.731Z,97009.48
2018-12-04T05:29:17.524Z,97021.08
2018-12-04T05:31:45.345Z,97021.40
2018-12-04T05:34:13.137Z,97032.30
2018-12-04T05:36:40.934Z,97027.47
2018-12-04T05:39:08.648Z,97016.80
2018-12-04T05:41:36.445Z,97032.45
2018-12-04T05:44:04.203Z,97036.48
2018-12-04T05:46:32.032Z,97037.81
2018-12-04T05:48:59.835Z,97040.28
2018-12-04T05:51:27.641Z,97032.70
2018-12-04T05:53:55.424Z,97046.89
2018-12-04T05:56:23.215Z,97047.47
2018-12-04T05:58:51.055Z,97047.20
2018-12-04T06:01:18.875Z,97050.21
2018-12-04T06:03:46.642Z,97051.87
2018-12-04T06:06:14.558Z,97052.67
2018-12-04T06:08:42.376Z,97061.27
2018-12-04T06:11:10.254Z,97064.65
2018-12-04T06:13:38.042Z,97063.62
2018-12-04T06:16:05.888Z,97073.65
2018-12-04T06:18:33.679Z,97076.91
2018-12-04T06:21:01.651Z,97079.02
2018-12-04T06:23:29.438Z,97083.04
2018-12-04T06:25:57.147Z,97091.03
2018-12-04T06:28:24.911Z,97097.89
2018-12-04T06:30:52.659Z,97087.00
2018-12-04T06:33:20.297Z,97091.03
2018-12-04T06:35:47.911Z,97099.14
2018-12-04T06:38:15.540Z,97101.91
2018-12-04T06:40:43.162Z,97107.50
2018-12-04T06:43:10.771Z,97121.17
2018-12-04T06:45:38.393Z,97131.64
2018-12-04T06:48:06.006Z,97133.88
2018-12-04T06:50:33.684Z,97142.16
2018-12-04T06:53:01.399Z,97137.02
2018-12-04T06:55:29.028Z,97144.92
2018-12-04T06:57:58.105Z,97149.03
2018-12-04T07:00:25.712Z,97149.80
2018-12-04T07:02:53.327Z,97156.19
2018-12-04T07:05:21.045Z,97156.05
2018-12-04T07:07:48.705Z,97165.98
2018-12-04T07:10:16.333Z,97170.72
2018-12-04T07:12:44.049Z,97169.46
2018-12-04T07:15:11.651Z,97182.39
2018-12-04T07:17:39.258Z,97189.95
2018-12-04T07:20:07.392Z,97196.61
2018-12-04T07:22:34.994Z,97211.81
2018-12-04T07:25:02.648Z,97226.11
2018-12-04T07:27:30.265Z,97225.00
2018-12-04T07:29:57.981Z,97229.83
2018-12-04T07:32:25.654Z,97230.69
2018-12-04T07:34:53.267Z,97231.08
2018-12-04T07:37:20.871Z,97223.65
2018-12-04T07:39:48.535Z,97226.73
2018-12-04T07:42:16.175Z,97231.48
2018-12-04T07:44:43.789Z,97229.59
2018-12-04T07:47:11.400Z,97229.59
2018-12-04T07:49:39.011Z,97248.69
2018-12-04T07:52:06.712Z,97259.16
2018-12-04T07:54:34.380Z,97258.22
2018-12-04T07:57:02.012Z,97267.88
2018-12-04T07:59:29.624Z,97272.98
2018-12-04T08:01:57.280Z,97275.13
2018-12-04T08:04:24.949Z,97280.58
2018-12-04T08:06:52.563Z,97289.71
2018-12-04T08:09:20.247Z,97286.71
2018-12-04T08:11:47.927Z,97290.11
2018-12-04T08:14:15.580Z,97283.80
2018-12-04T08:16:43.199Z,97289.48
2018-12-04T08:19:10.826Z,97288.31
2018-12-04T08:21:38.464Z,97293.73
2018-12-04T08:24:06.075Z,97304.23
2018-12-04T08:26:34.176Z,97312.12
2018-12-04T08:29:01.902Z,97319.41
2018-12-04T08:31:29.512Z,97318.91
2018-12-04T08:33:57.132Z,97331.80
2018-12-04T08:36:24.890Z,97328.31
2018-12-04T08:38:52.624Z,97169.07
2018-12-04T08:41:20.484Z,97346.02
2018-12-04T08:43:48.283Z,97361.63
2018-12-04T08:46:16.062Z,97365.65
2018-12-04T08:48:43.856Z,97367.30
2018-12-04T08:51:11.650Z,97368.64
2018-12-04T08:53:39.427Z,97373.88
2018-12-04T08:56:07.257Z,97381.03
2018-12-04T08:58:35.039Z,97382.78
2018-12-04T09:01:02.844Z,97388.87
2018-12-04T09:03:30.737Z,97392.09
2018-12-04T09:05:58.574Z,97400.09
2018-12-04T09:08:26.423Z,97408.20
2018-12-04T09:10:54.204Z,97408.60
2018-12-04T09:13:21.997Z,97413.12
2018-12-04T09:15:49.814Z,97418.08
2018-12-04T09:18:17.551Z,97423.98
2018-12-04T09:20:45.363Z,97420.05
2018-12-04T09:23:13.245Z,97423.53
2018-12-04T09:25:41.118Z,97432.13
2018-12-04T09:28:08.934Z,97432.97
2018-12-04T09:30:36.730Z,97439.14
2018-12-04T09:33:04.588Z,97438.03
2018-12-04T09:35:32.404Z,97439.86
2018-12-04T09:38:00.287Z,97452.58
2018-12-04T09:40:28.095Z,97451.50
2018-12-04T09:42:55.979Z,97454.55
2018-12-04T09:45:23.779Z,97448.63
2018-12-04T09:47:51.589Z,97452.76
2018-12-04T09:50:19.374Z,97451.19
2018-12-04T09:52:47.180Z,97458.00
2018-12-04T09:55:14.904Z,97467.85
2018-12-04T09:57:42.769Z,97463.28
2018-12-04T10:00:10.530Z,97457.90
2018-12-04T10:02:38.353Z,97460.71
2018-12-04T10:05:06.167Z,97461.52
2018-12-04T10:07:33.923Z,97469.87
2018-12-04T10:10:01.730Z,97468.35
2018-12-04T10:12:29.546Z,97473.90
2018-12-04T10:14:57.278Z,97469.38
2018-12-04T10:17:25.089Z,97470.42
2018-12-04T10:19:52.852Z,97473.52
2018-12-04T10:22:20.623Z,97479.55
2018-12-04T10:24:48.485Z,97487.76
2018-12-04T10:27:16.286Z,97489.62
2018-12-04T10:29:44.095Z,97492.53
2018-12-04T10:32:11.970Z,97491.14
2018-12-04T10:34:39.840Z,97497.05
2018-12-04T10:37:07.567Z,97479.99
2018-12-04T10:39:35.347Z,97500.33
2018-12-04T10:42:03.112Z,97503.06
2018-12-04T10:44:30.966Z,97503.94
2018-12-04T10:46:58.787Z,97504.25
2018-12-04T10:49:26.659Z,97512.88
2018-12-04T10:51:54.387Z,97509.56
2018-12-04T10:54:22.166Z,97505.55
2018-12-04T10:56:50.426Z,97513.92
2018-12-04T10:59:18.236Z,97521.16
2018-12-04T11:01:51.282Z,97523.72
2018-12-04T11:04:19.046Z,97526.78
2018-12-04T11:06:46.823Z,97547.31
2018-12-04T11:09:14.699Z,97547.97
2018-12-04T11:11:42.591Z,97554.53
2018-12-04T11:14:10.315Z,97558.48
2018-12-04T11:16:38.085Z,97564.88
2018-12-04T11:19:05.883Z,97578.61
2018-12-04T11:21:33.633Z,97592.88
2018-12-04T11:24:01.373Z,97586.59
2018-12-04T11:26:29.137Z,97593.30
2018-12-04T11:28:56.920Z,97595.22
2018-12-04T11:31:24.660Z,97591.23
2018-12-04T11:33:52.446Z,97596.86
2018-12-04T11:36:20.307Z,97594.80
2018-12-04T11:38:48.177Z,97596.45
2018-12-04T11:41:16.022Z,97602.96
2018-12-04T11:43:43.808Z,97602.58
2018-12-04T11:46:11.583Z,97608.83
2018-12-04T11:48:39.367Z,97613.94
2018-12-04T11:51:07.196Z,97624.86
2018-12-04T11:53:35.082Z,97630.53
2018-12-04T11:56:02.854Z,97630.00
2018-12-04T11:58:30.634Z,97639.09
2018-12-04T12:00:58.524Z,97635.79
2018-12-04T12:03:26.324Z,97642.35
2018-12-04T12:05:54.088Z,97636.38
2018-12-04T12:08:21.972Z,97634.25
2018-12-04T12:10:49.820Z,97646.08
2018-12-04T12:13:17.575Z,97653.36
2018-12-04T12:15:45.342Z,97664.02
2018-12-04T12:18:13.097Z,97666.70
2018-12-04T12:20:41.516Z,97663.41
2018-12-04T12:23:09.287Z,97668.23
2018-12-04T12:25:37.273Z,97676.22
2018-12-04T12:28:05.250Z,97683.54
2018-12-04T12:30:32.960Z,97681.05
2018-12-04T12:33:00.753Z,97684.53
2018-12-04T12:35:28.531Z,97683.36
2018-12-04T12:37:56.301Z,97700.43
2018-12-04T12:40:24.567Z,97692.14
2018-12-04T12:42:52.500Z,97707.14
2018-12-04T12:45:20.419Z,97699.47
2018-12-04T12:47:48.331Z,97694.83
2018-12-04T12:50:16.213Z,97697.02
2018-12-04T12:52:44.531Z,97697.20
2018-12-04T12:55:12.476Z,97693.86
2018-12-04T12:57:40.294Z,97700.80
2018-12-04T13:00:08.604Z,97707.52
2018-12-04T13:02:36.372Z,97703.72
2018-12-04T13:05:04.243Z,97703.11
2018-12-04T13:07:32.086Z,97700.39
2018-12-04T13:09:59.973Z,97707.27
2018-12-04T13:12:27.719Z,97703.54
2018-12-04T13:14:55.547Z,97711.12
2018-12-04T13:17:23.340Z,97716.54
2018-12-04T13:19:51.187Z,97721.37
2018-12-04T13:22:19.009Z,97732.65
2018-12-04T13:24:46.757Z,97739.97
2018-12-04T13:27:14.635Z,97741.27
2018-12-04T13:29:42.492Z,97742.66
2018-12-04T13:32:10.250Z,97747.98
2018-12-04T13:34:38.002Z,97750.60
2018-12-04T13:37:05.768Z,97749.33
2018-12-04T13:39:34.583Z,97753.66
2018-12-04T13:42:02.462Z,97760.61
2018-12-04T13:44:30.277Z,97767.32
2018-12-04T13:46:58.183Z,97773.80
2018-12-04T13:49:27.192Z,97777.89
2018-12-04T13:51:55.036Z,97784.47
2018-12-04T13:54:22.914Z,97781.59
2018-12-04T13:56:50.674Z,97783.06
2018-12-04T13:59:18.561Z,97789.11
2018-12-04T14:01:46.300Z,97793.94
2018-12-04T14:04:17.130Z,97802.09
2018-12-04T14:06:43.878Z,97806.09
2018-12-04T14:09:11.790Z,97814.67
2018-12-04T14:11:39.547Z,97826.93
2018-12-04T14:14:07.361Z,97826.45
2018-12-04T14:16:35.121Z,97834.45
2018-12-04T14:19:02.925Z,97839.88
2018-12-04T14:21:30.788Z,97844.14
2018-12-04T14:23:58.537Z,97846.59
2018-12-04T14:26:26.289Z,97858.68
2018-12-04T14:28:54.065Z,97866.13
2018-12-04T14:31:21.923Z,97879.35
2018-12-04T14:33:49.708Z,97883.61
2018-12-04T14:36:17.491Z,97897.61
2018-12-04T14:38:45.342Z,97894.19
2018-12-04T14:41:13.208Z,97888.27
2018-12-04T14:43:41.046Z,97889.55
2018-12-04T14:46:08.918Z,97881.56
2018-12-04T14:48:36.768Z,97870.84
2018-12-04T14:51:04.682Z,97894.55
2018-12-04T14:53:32.652Z,97905.97
2018-12-04T14:56:00.468Z,97906.86
2018-12-04T14:58:28.180Z,97916.27
2018-12-04T15:00:56.059Z,97912.77
2018-12-04T15:03:23.940Z,97926.64
2018-12-04T15:05:51.729Z,97922.97
2018-12-04T15:08:19.488Z,97923.72
2018-12-04T15:10:47.182Z,97931.56
2018-12-04T15:13:15.079Z,97941.70
2018-12-04T15:15:42.916Z,97948.69
2018-12-04T15:18:10.622Z,97955.12
2018-12-04T15:20:38.489Z,97960.77
2018-12-04T15:23:06.289Z,97959.96
2018-12-04T15:25:34.407Z,97964.53
2018-12-04T15:28:02.317Z,97965.03
2018-12-04T15:30:30.126Z,97968.85
2018-12-04T15:32:58.098Z,97970.16
2018-12-04T15:35:25.970Z,97980.99
2018-12-04T15:37:53.848Z,97987.17
2018-12-04T15:40:21.702Z,97988.98
2018-12-04T15:42:49.478Z,97992.54
2018-12-04T15:45:17.244Z,97993.59
2018-12-04T15:47:45.083Z,97999.79
2018-12-04T15:50:12.851Z,98000.08
2018-12-04T15:52:41.133Z,97998.69
2018-12-04T15:55:09.032Z,98000.03
2018-12-04T15:57:36.844Z,98007.25
2018-12-04T16:00:06.030Z,98009.94
2018-12-04T16:02:34.280Z,97993.58
2018-12-04T16:05:02.554Z,98018.05
2018-12-04T16:07:32.440Z,98021.05
2018-12-04T16:10:00.243Z,98021.63
2018-12-04T16:12:28.054Z,98017.23
2018-12-04T16:14:55.916Z,98012.70
2018-12-04T16:17:24.309Z,98007.93
2018-12-04T16:19:52.418Z,98025.00
2018-12-04T16:22:20.810Z,98017.23
2018-12-04T16:24:48.650Z,98047.06
2018-12-04T16:27:16.412Z,98056.52
2018-12-04T16:29:44.262Z,98056.76
2018-12-04T16:32:12.749Z,98062.12
2018-12-04T16:34:41.036Z,98066.39
2018-12-04T16:37:08.967Z,98064.52
2018-12-04T16:39:36.748Z,98062.12
2018-12-04T16:42:04.532Z,98064.22
2018-12-04T16:44:32.382Z,98069.89
2018-12-04T16:47:00.162Z,98063.98
2018-12-04T16:49:28.027Z,98056.67
2018-12-04T16:51:55.775Z,98056.86
2018-12-04T16:54:23.648Z,98059.84
2018-12-04T16:56:51.603Z,98065.72
2018-12-04T16:59:19.371Z,98070.88
2018-12-04T17:01:47.229Z,98071.63
2018-12-04T17:04:15.027Z,98075.31
2018-12-04T17:06:42.875Z,98075.98
2018-12-04T17:09:10.702Z,98053.52
2018-12-04T17:11:38.549Z,98093.91
2018-12-04T17:14:06.375Z,98101.66
2018-12-04T17:16:34.236Z,98100.52
2018-12-04T17:19:02.099Z,98108.67
2018-12-04T17:21:29.943Z,98110.81
2018-12-04T17:23:57.746Z,98115.62
2018-12-04T17:26:25.644Z,98117.02
2018-12-04T17:28:53.420Z,98123.14
2018-12-04T17:31:21.195Z,98119.59
2018-12-04T17:33:49.047Z,98128.55
2018-12-04T17:36:16.871Z,98132.48
2018-12-04T17:38:44.649Z,98144.55
2018-12-04T17:41:12.400Z,98142.67
2018-12-04T17:43:40.272Z,98152.84
2018-12-04T17:46:08.050Z,98156.34
2018-12-04T17:48:36.086Z,98147.77
2018-12-04T17:51:04.341Z,98150.97
2018-12-04T17:53:32.528Z,98153.36
2018-12-04T17:56:00.745Z,98151.73
2018-12-04T17:58:28.905Z,98146.41
2018-12-04T18:00:56.665Z,98148.58
2018-12-04T18:03:24.494Z,98148.87
2018-12-04T18:05:52.317Z,98155.05
2018-12-04T18:08:20.200Z,98153.41
2018-12-04T18:10:48.061Z,98170.86
2018-12-04T18:13:15.806Z,98177.11
2018-12-04T18:15:43.666Z,98180.27
2018-12-04T18:18:11.454Z,98181.84
2018-12-04T18:20:39.260Z,98174.77
2018-12-04T18:23:06.915Z,98170.98
2018-12-04T18:25:34.542Z,98181.50
2018-12-04T18:28:02.183Z,98175.94
2018-12-04T18:30:29.884Z,98184.70
2018-12-04T18:32:57.505Z,98196.83
2018-12-04T18:35:25.157Z,98205.66
2018-12-04T18:37:52.756Z,98212.08
2018-12-04T18:40:20.461Z,98211.61
2018-12-04T18:42:48.097Z,98214.88
2018-12-04T18:45:15.712Z,98213.81
2018-12-04T18:47:43.605Z,98214.58
2018-12-04T18:50:11.744Z,98217.61
2018-12-04T18:52:39.511Z,98231.49
2018-12-04T18:55:07.366Z,98231.27
2018-12-04T18:57:35.176Z,98236.95
2018-12-04T19:00:03.018Z,98237.49
2018-12-04T19:02:30.797Z,98245.73
2018-12-04T19:04:58.793Z,98258.87
2018-12-04T19:07:26.613Z,98253.26
2018-12-04T19:09:54.374Z,98252.78
2018-12-04T19:12:22.146Z,98251.16
2018-12-04T19:14:50.029Z,98248.71
2018-12-04T19:17:17.787Z,98248.27
2018-12-04T19:19:45.549Z,98245.01
2018-12-04T19:22:13.726Z,98255.77
2018-12-04T19:24:41.542Z,98251.72
2018-12-04T19:27:09.339Z,98262.18
2018-12-04T19:29:37.133Z,98263.46
2018-12-04T19:32:04.970Z,98269.89
2018-12-04T19:34:32.753Z,98267.30
2018-12-04T19:37:00.506Z,98264.09
2018-12-04T19:39:28.331Z,98246.88
2018-12-04T19:41:56.072Z,98265.73
2018-12-04T19:44:23.955Z,98261.22
2018-12-04T19:46:51.850Z,98262.27
2018-12-04T19:49:20.153Z,98260.88
2018-12-04T19:51:48.246Z,98276.22
2018-12-04T19:54:16.090Z,98287.72
2018-12-04T19:56:44.006Z,98286.37
2018-12-04T19:59:11.806Z,98289.64
2018-12-04T20:01:39.547Z,98290.17
2018-12-04T20:04:07.165Z,98288.25
2018-12-04T20:06:34.795Z,98285.04
2018-12-04T20:09:04.468Z,98292.28
2018-12-04T20:11:32.499Z,98288.59
2018-12-04T20:14:00.289Z,98285.09
2018-12-04T20:16:28.160Z,98290.17
2018-12-04T20:18:56.076Z,98296.35
2018-12-04T20:21:23.856Z,98298.50
2018-12-04T20:23:51.636Z,98304.73
2018-12-04T20:26:19.265Z,98309.00
2018-12-04T20:28:47.192Z,98310.34
2018-12-04T20:31:15.270Z,98321.84
2018-12-04T20:33:43.624Z,98321.66
2018-12-04T20:36:12.496Z,98322.94
2018-12-04T20:38:40.616Z,98333.97
2018-12-04T20:41:08.535Z,98341.49
2018-12-04T20:43:36.683Z,98341.45
2018-12-04T20:46:06.022Z,98340.34
2018-12-04T20:48:34.095Z,98346.25
2018-12-04T20:51:01.930Z,98354.87
2018-12-04T20:53:30.038Z,98354.86
2018-12-04T20:55:58.133Z,98347.09
2018-12-04T20:58:26.089Z,98340.67
2018-12-04T21:00:53.960Z,98349.55
2018-12-04T21:03:21.740Z,98331.66
2018-12-04T21:05:49.557Z,98356.20
2018-12-04T21:08:17.196Z,98364.54
2018-12-04T21:10:44.927Z,98362.67
2018-12-04T21:13:14.555Z,98365.89
2018-12-04T21:15:42.327Z,98369.67
2018-12-04T21:18:09.936Z,98365.08
2018-12-04T21:20:37.569Z,98370.92
2018-12-04T21:23:05.467Z,98365.61
2018-12-04T21:25:33.321Z,98359.19
2018-12-04T21:28:06.454Z,98347.15
2018-12-04T21:31:41.174Z,98354.95
2018-12-04T21:34:14.256Z,98353.33
2018-12-04T21:36:47.265Z,98359.70
2018-12-04T21:39:24.889Z,98360.52
2018-12-04T21:41:59.135Z,98365.11
2018-12-04T21:44:32.381Z,98366.22
2018-12-04T21:47:05.496Z,98372.89
2018-12-04T21:49:33.289Z,98378.05
2018-12-04T21:52:01.109Z,98382.55
2018-12-04T21:54:28.931Z,98385.82
2018-12-04T21:56:56.795Z,98391.42
2018-12-04T21:59:24.590Z,98391.75
2018-12-04T22:01:52.395Z,98398.75
2018-12-04T22:04:20.256Z,98405.98
2018-12-04T22:06:48.151Z,98402.48
2018-12-04T22:09:16.045Z,98416.95
2018-12-04T22:11:43.864Z,98429.84
2018-12-04T22:14:11.767Z,98420.45
2018-12-04T22:16:39.609Z,98421.83
2018-12-04T22:19:07.412Z,98424.52
2018-12-04T22:21:35.276Z,98428.27
2018-12-04T22:24:03.171Z,98428.02
2018-12-04T22:26:30.991Z,98430.66
2018-12-04T22:28:58.762Z,98445.17
2018-12-04T22:31:26.415Z,98441.11
2018-12-04T22:33:54.115Z,98445.50
2018-12-04T22:36:21.749Z,98453.80
2018-12-04T22:38:49.378Z,98447.82
2018-12-04T22:41:17.009Z,98452.98
2018-12-04T22:43:44.666Z,98454.64
2018-12-04T22:46:12.319Z,98458.91
2018-12-04T22:48:39.928Z,98456.02
2018-12-04T22:51:07.548Z,98439.75
2018-12-04T22:53:35.163Z,98455.17
2018-12-04T22:56:02.817Z,98450.09
2018-12-04T22:58:30.433Z,98451.11
2018-12-04T23:00:58.048Z,98445.22
2018-12-04T23:03:25.901Z,98448.19
2018-12-04T23:05:53.506Z,98444.72
2018-12-04T23:08:21.120Z,98454.89
2018-12-04T23:10:49.743Z,98447.62
2018-12-04T23:13:17.415Z,98444.44
2018-12-04T23:15:45.010Z,98438.79
2018-12-04T23:18:13.406Z,98440.42
2018-12-04T23:20:41.011Z,98441.76
2018-12-04T23:23:08.716Z,98431.59
2018-12-04T23:25:36.439Z,98433.99
2018-12-04T23:28:04.128Z,98430.50
2018-12-04T23:30:31.790Z,98435.01
2018-12-04T23:32:59.421Z,98425.91
2018-12-04T23:35:27.046Z,98425.94
2018-12-04T23:37:54.684Z,98401.39
2018-12-04T23:40:22.323Z,98420.86
2018-12-04T23:42:49.930Z,98413.88
2018-12-04T23:45:17.552Z,98417.57
2018-12-04T23:47:45.172Z,98409.84
2018-12-04T23:50:12.881Z,98404.97
2018-12-04T23:52:40.500Z,98411.72
2018-12-04T23:55:08.106Z,98420.58
2018-12-04T23:57:35.720Z,98423.58
